createdAt,value
2022-12-25T00:02:10.424Z,100446.80
2022-12-25T00:07:14.966Z,100450.60
2022-12-25T00:12:19.814Z,100459.00
2022-12-25T00:17:23.839Z,100462.60
2022-12-25T00:22:27.791Z,100467.00
2022-12-25T00:27:34.393Z,100465.80
2022-12-25T00:32:38.412Z,100463.80
2022-12-25T00:37:42.117Z,100471.60
2022-12-25T00:42:45.845Z,100473.80
2022-12-25T00:47:49.454Z,100474.60
2022-12-25T00:52:53.071Z,100485.60
2022-12-25T00:57:56.802Z,100492.20
2022-12-25T01:03:00.559Z,100510.80
2022-12-25T01:08:05.499Z,100517.60
2022-12-25T01:13:09.099Z,100526.80
2022-12-25T01:18:13.048Z,100531.60
2022-12-25T01:23:17.769Z,100538.80
2022-12-25T01:28:21.374Z,100527.20
2022-12-25T01:33:25.214Z,100530.80
2022-12-25T01:38:29.033Z,100544.80
2022-12-25T01:43:34.640Z,100535.80
2022-12-25T01:48:40.067Z,100541.00
2022-12-25T01:53:43.780Z,100531.00
2022-12-25T01:58:48.198Z,100527.20
2022-12-25T02:04:03.107Z,100523.80
2022-12-25T02:09:07.043Z,100517.80
2022-12-25T02:14:11.265Z,100521.00
2022-12-25T02:20:13.670Z,100539.00
2022-12-25T02:25:58.656Z,100547.40
2022-12-25T02:31:16.547Z,100550.60
2022-12-25T02:36:27.268Z,100555.40
2022-12-25T02:41:37.790Z,100553.00
2022-12-25T02:47:03.217Z,100545.40
2022-12-25T02:52:40.628Z,100546.80
2022-12-25T02:58:08.961Z,100549.40
2022-12-25T03:03:35.489Z,100558.20
2022-12-25T03:08:45.412Z,100561.40
2022-12-25T03:14:17.248Z,100562.60
2022-12-25T03:19:46.046Z,100565.00
2022-12-25T03:25:09.530Z,100564.40
2022-12-25T03:30:39.764Z,100557.60
2022-12-25T03:36:05.833Z,100560.80
2022-12-25T03:41:52.559Z,100557.60
2022-12-25T03:47:35.430Z,100555.40
2022-12-25T03:53:00.318Z,100558.00
2022-12-25T03:58:22.980Z,100554.00
2022-12-25T04:03:45.716Z,100573.80
2022-12-25T04:09:08.309Z,100571.60
2022-12-25T04:14:38.656Z,100567.40
2022-12-25T04:20:01.390Z,100573.80
2022-12-25T04:25:24.712Z,100562.00
2022-12-25T04:30:47.014Z,100574.80
2022-12-25T04:36:09.439Z,100587.00
2022-12-25T04:41:14.686Z,100589.60
2022-12-25T04:46:18.343Z,100582.60
2022-12-25T04:51:25.822Z,100572.00
2022-12-25T04:56:29.640Z,100576.60
2022-12-25T05:01:34.067Z,100577.80
2022-12-25T05:06:37.982Z,100577.60
2022-12-25T05:11:41.569Z,100582.20
2022-12-25T05:16:45.353Z,100588.20
2022-12-25T05:21:49.102Z,100581.20
2022-12-25T05:26:52.897Z,100592.00
2022-12-25T05:31:57.645Z,100599.40
2022-12-25T05:37:01.121Z,100614.20
2022-12-25T05:42:04.899Z,100611.60
2022-12-25T05:47:08.446Z,100620.00
2022-12-25T05:52:12.629Z,100617.60
2022-12-25T05:57:16.224Z,100623.80
2022-12-25T06:02:20.101Z,100625.00
2022-12-25T06:07:23.883Z,100618.00
2022-12-25T06:12:27.534Z,100629.40
2022-12-25T06:17:34.056Z,100635.60
2022-12-25T06:22:38.556Z,100639.00
2022-12-25T06:27:45.048Z,100645.00
2022-12-25T06:32:49.793Z,100652.60
2022-12-25T06:37:54.479Z,100658.80
2022-12-25T06:42:58.062Z,100665.60
2022-12-25T06:48:04.258Z,100679.00
2022-12-25T06:53:09.702Z,100684.60
2022-12-25T06:58:14.955Z,100703.60
2022-12-25T07:03:22.681Z,100725.20
2022-12-25T07:08:26.264Z,100724.80
2022-12-25T07:13:30.322Z,100724.20
2022-12-25T07:18:36.101Z,100723.80
2022-12-25T07:23:40.432Z,100741.00
2022-12-25T07:28:44.390Z,100749.60
2022-12-25T07:33:48.598Z,100757.20
2022-12-25T07:38:52.319Z,100760.20
2022-12-25T07:43:56.325Z,100766.20
2022-12-25T07:49:00.328Z,100769.80
2022-12-25T07:54:04.846Z,100780.60
2022-12-25T07:59:09.154Z,100783.00
2022-12-25T08:04:13.284Z,100788.00
2022-12-25T08:09:17.121Z,100790.80
2022-12-25T08:14:21.047Z,100795.20
2022-12-25T08:19:24.988Z,100803.40
2022-12-25T08:24:28.910Z,100808.60
2022-12-25T08:29:34.007Z,100817.20
2022-12-25T08:34:40.757Z,100814.20
2022-12-25T08:39:44.678Z,100816.00
2022-12-25T08:44:48.817Z,100814.80
2022-12-25T08:49:54.977Z,100822.60
2022-12-25T08:54:59.329Z,100833.40
2022-12-25T09:00:08.566Z,100835.20
2022-12-25T09:05:14.359Z,100826.20
2022-12-25T09:10:23.165Z,100828.20
2022-12-25T09:15:30.267Z,100827.40
2022-12-25T09:20:39.027Z,100827.00
2022-12-25T09:25:46.960Z,100832.00
2022-12-25T09:30:53.857Z,100829.80
2022-12-25T09:36:02.410Z,100838.20
2022-12-25T09:41:58.327Z,100826.20
2022-12-25T09:47:13.827Z,100835.60
2022-12-25T09:52:55.457Z,100835.60
2022-12-25T09:58:08.922Z,100844.60
2022-12-25T10:04:02.418Z,100837.80
2022-12-25T10:09:24.649Z,100852.80
2022-12-25T10:14:59.812Z,100854.00
2022-12-25T10:20:53.498Z,100836.40
2022-12-25T10:26:16.622Z,100844.80
2022-12-25T10:31:34.353Z,100858.60
2022-12-25T10:36:38.765Z,100849.40
2022-12-25T10:42:23.670Z,100849.40
2022-12-25T10:47:33.433Z,100828.20
2022-12-25T10:57:58.216Z,100831.80
2022-12-25T11:03:02.296Z,100825.60
2022-12-25T11:08:23.645Z,100827.60
2022-12-25T11:13:30.931Z,100831.40
2022-12-25T11:18:54.239Z,100821.20
2022-12-25T11:24:02.634Z,100829.60
2022-12-25T11:29:26.245Z,100838.20
2022-12-25T11:34:49.423Z,100842.80
2022-12-25T11:39:53.168Z,100849.60
2022-12-25T11:45:24.524Z,100850.60
2022-12-25T11:50:36.760Z,100857.60
2022-12-25T11:55:57.432Z,100859.20
2022-12-25T12:01:27.948Z,100866.00
2022-12-25T12:07:01.539Z,100868.20
2022-12-25T12:12:15.932Z,100865.80
2022-12-25T12:17:20.803Z,100864.20
2022-12-25T12:22:28.677Z,100862.20
2022-12-25T12:27:39.727Z,100857.00
2022-12-25T12:32:54.282Z,100851.20
2022-12-25T12:38:04.715Z,100836.60
2022-12-25T12:43:23.294Z,100837.20
2022-12-25T12:48:30.651Z,100838.00
2022-12-25T12:53:35.609Z,100841.00
2022-12-25T12:58:46.630Z,100845.80
2022-12-25T13:04:09.037Z,100842.60
2022-12-25T13:09:36.086Z,100849.60
2022-12-25T13:14:48.516Z,100860.60
2022-12-25T13:20:02.806Z,100861.00
2022-12-25T13:25:20.148Z,100861.20
2022-12-25T13:30:25.990Z,100860.80
2022-12-25T13:35:30.439Z,100852.20
2022-12-25T13:40:35.103Z,100857.60
2022-12-25T13:45:39.039Z,100853.60
2022-12-25T13:50:48.976Z,100856.00
2022-12-25T13:55:56.293Z,100858.00
2022-12-25T14:01:03.065Z,100861.80
2022-12-25T14:06:31.186Z,100856.60
2022-12-25T14:11:36.835Z,100854.20
2022-12-25T14:16:45.055Z,100849.20
2022-12-25T14:22:12.624Z,100848.00
2022-12-25T14:27:30.930Z,100850.80
2022-12-25T14:32:44.303Z,100859.60
2022-12-25T14:37:56.795Z,100876.00
2022-12-25T14:43:03.835Z,100891.80
2022-12-25T14:48:25.486Z,100900.40
2022-12-25T14:53:46.874Z,100903.80
2022-12-25T14:59:00.520Z,100908.40
2022-12-25T15:04:11.591Z,100910.40
2022-12-25T15:09:19.439Z,100900.40
2022-12-25T15:14:25.586Z,100905.00
2022-12-25T15:19:38.999Z,100890.00
2022-12-25T15:24:43.102Z,100883.00
2022-12-25T15:35:21.876Z,100894.00
2022-12-25T15:40:25.646Z,100884.60
2022-12-25T15:45:31.500Z,100874.00
2022-12-25T15:50:37.096Z,100861.80
2022-12-25T15:55:41.612Z,100849.60
2022-12-25T16:00:45.407Z,100845.80
2022-12-25T16:05:51.097Z,100838.80
2022-12-25T16:10:55.321Z,100878.60
2022-12-25T16:15:59.473Z,100888.80
2022-12-25T16:21:03.625Z,100894.20
2022-12-25T16:26:07.709Z,100883.60
2022-12-25T16:31:12.720Z,100887.20
2022-12-25T16:36:19.494Z,100892.80
2022-12-25T16:41:27.588Z,100892.60
2022-12-25T16:46:32.063Z,100885.00
2022-12-25T16:51:36.243Z,100888.60
2022-12-25T16:56:40.904Z,100891.60
2022-12-25T17:01:45.653Z,100879.60
2022-12-25T17:06:49.934Z,100865.40
2022-12-25T17:11:53.806Z,100867.40
2022-12-25T17:16:58.147Z,100878.20
2022-12-25T17:22:02.460Z,100872.00
2022-12-25T17:27:09.035Z,100867.60
2022-12-25T17:32:13.125Z,100863.40
2022-12-25T17:37:17.654Z,100859.00
2022-12-25T17:42:21.563Z,100862.00
2022-12-25T17:47:26.601Z,100860.20
2022-12-25T17:52:33.337Z,100858.20
2022-12-25T17:57:41.037Z,100860.60
2022-12-25T18:02:47.670Z,100860.60
2022-12-25T18:07:52.691Z,100845.60
2022-12-25T18:12:57.321Z,100844.20
2022-12-25T18:18:01.449Z,100846.60
2022-12-25T18:23:06.090Z,100842.60
2022-12-25T18:28:11.567Z,100836.00
2022-12-25T18:33:16.938Z,100818.80
2022-12-25T18:38:22.483Z,100817.20
2022-12-25T18:43:54.196Z,100824.40
2022-12-25T18:48:52.400Z,100823.80
2022-12-25T18:53:58.567Z,100826.20
2022-12-25T18:59:02.796Z,100817.80
2022-12-25T19:04:09.171Z,100818.00
2022-12-25T19:09:14.367Z,100807.80
2022-12-25T19:14:19.893Z,100801.60
2022-12-25T19:19:27.378Z,100793.80
2022-12-25T19:24:34.166Z,100790.20
2022-12-25T19:29:38.534Z,100781.00
2022-12-25T19:34:43.487Z,100773.20
2022-12-25T19:39:48.125Z,100772.80
2022-12-25T19:44:51.838Z,100764.60
2022-12-25T19:49:58.406Z,100759.40
2022-12-25T19:55:09.259Z,100742.40
2022-12-25T20:00:15.554Z,100744.60
2022-12-25T20:05:22.446Z,100747.40
2022-12-25T20:10:26.709Z,100755.60
2022-12-25T20:15:46.517Z,100763.40
2022-12-25T20:21:14.535Z,100762.80
2022-12-25T20:26:23.873Z,100756.80
2022-12-25T20:31:34.466Z,100751.00
2022-12-25T20:36:38.879Z,100761.00
2022-12-25T20:41:45.501Z,100755.00
2022-12-25T20:46:50.975Z,100758.60
2022-12-25T20:51:59.800Z,100755.20
2022-12-25T20:57:09.381Z,100746.60
2022-12-25T21:02:34.969Z,100737.40
2022-12-25T21:07:38.822Z,100735.80
2022-12-25T21:12:43.007Z,100713.00
2022-12-25T21:17:47.320Z,100707.80
2022-12-25T21:22:52.721Z,100706.00
2022-12-25T21:28:01.063Z,100700.00
2022-12-25T21:33:25.172Z,100686.20
2022-12-25T21:38:29.124Z,100673.20
2022-12-25T21:43:34.752Z,100659.80
2022-12-25T21:48:41.296Z,100652.60
2022-12-25T21:53:46.010Z,100665.40
2022-12-25T21:58:51.534Z,100658.20
2022-12-25T22:03:57.475Z,100644.00
2022-12-25T22:09:03.179Z,100645.60
2022-12-25T22:14:50.511Z,100643.40
2022-12-25T22:19:57.910Z,100620.20
2022-12-25T22:25:04.878Z,100608.20
2022-12-25T22:30:22.066Z,100602.80
2022-12-25T22:35:27.585Z,100584.40
2022-12-25T22:40:31.933Z,100570.60
2022-12-25T22:45:37.500Z,100555.20
2022-12-25T22:50:41.307Z,100551.80
2022-12-25T22:55:50.778Z,100548.00
2022-12-25T23:00:55.237Z,100527.00
2022-12-25T23:05:59.198Z,100527.60
2022-12-25T23:11:06.515Z,100529.60
2022-12-25T23:16:15.856Z,100521.60
2022-12-25T23:21:38.669Z,100508.80
2022-12-25T23:26:43.522Z,100498.20
2022-12-25T23:31:54.001Z,100473.00
2022-12-25T23:36:58.532Z,100477.80
2022-12-25T23:42:03.189Z,100497.00
2022-12-25T23:47:06.923Z,100503.00
2022-12-25T23:52:13.543Z,100498.00
2022-12-25T23:57:17.219Z,100502.40
